Time;durP1;ratioP1;P1;durP2;ratioP2;P2;SDS_P1;SDS_P2;PMS_P1;PMS_P2;Temp;Humidity;BMP_temperature;BMP_pressure;BME280_temperature;BME280_humidity;BME280_pressure;Samples;Min_cycle;Max_cycle;Signal;HPM_P1;HPM_P2
2021/07/23 00:02:08;;;;;;;15.15;12.13;;;18.90;99.90;;;;;;4973964;28;20183;-79
2021/07/23 00:04:35;;;;;;;16.65;12.02;;;18.90;99.90;;;;;;4974163;28;20138;-79
2021/07/23 00:07:03;;;;;;;14.15;11.30;;;18.90;99.90;;;;;;4975222;28;20145;-80
2021/07/23 00:09:31;;;;;;;15.32;11.45;;;18.80;99.90;;;;;;4974362;28;20454;-78
2021/07/23 00:12:00;;;;;;;15.68;11.25;;;18.80;99.90;;;;;;4975564;28;20055;-81
2021/07/23 00:15:11;;;;;;;12.93;11.45;;;18.80;99.90;;;;;;4992256;23;20085;-82
2021/07/23 00:20:58;;;;;;;14.13;11.35;;;18.60;99.90;;;;;;4984850;28;20510;-83
2021/07/23 00:23:26;;;;;;;17.52;12.05;;;18.70;99.90;;;;;;4991778;28;20054;-83
2021/07/23 00:33:19;;;;;;;14.80;12.23;;;18.40;99.90;;;;;;4879276;28;20061;-83
2021/07/23 00:39:21;;;;;;;18.67;13.05;;;18.40;99.90;;;;;;4923006;28;20051;-84
2021/07/23 00:41:49;;;;;;;16.88;12.35;;;18.30;99.90;;;;;;4987489;28;20051;-83
2021/07/23 00:44:45;;;;;;;22.00;13.18;;;18.30;99.90;;;;;;4988642;28;20082;-83
2021/07/23 01:02:04;;;;;;;18.13;12.43;;;17.90;99.90;;;;;;4791897;29;20418;-84
2021/07/23 01:04:45;;;;;;;18.45;12.68;;;17.80;99.90;;;;;;4806729;29;20058;-84
2021/07/23 01:07:56;;;;;;;20.60;13.10;;;17.70;99.90;;;;;;4834880;29;20058;-84
2021/07/23 01:10:23;;;;;;;15.13;12.05;;;17.60;99.90;;;;;;4992205;28;20055;-83
2021/07/23 01:12:53;;;;;;;17.63;13.05;;;17.50;99.90;;;;;;4993350;28;20514;-84
2021/07/23 01:15:26;;;;;;;17.02;13.50;;;17.50;99.90;;;;;;4993071;28;20107;-84
2021/07/23 01:17:54;;;;;;;18.77;12.73;;;17.50;99.90;;;;;;4993457;28;20042;-83
2021/07/23 01:20:38;;;;;;;17.55;12.48;;;17.40;99.90;;;;;;4993481;28;20051;-84
2021/07/23 01:23:20;;;;;;;20.40;12.38;;;17.40;99.90;;;;;;4992628;28;20054;-84
2021/07/23 01:26:39;;;;;;;14.73;12.05;;;17.30;99.90;;;;;;4991563;28;20051;-83
2021/07/23 01:30:01;;;;;;;;;;;;;;;;;;;;;
2021/07/23 01:39:57;;;;;;;15.65;11.88;;;17.20;99.90;;;;;;4860202;29;20123;-85
2021/07/23 01:48:44;;;;;;;18.50;12.45;;;17.10;99.90;;;;;;1409716;26;20465;-83
2021/07/23 01:51:41;;;;;;;16.98;12.25;;;17.00;99.90;;;;;;4991964;28;20534;-83
2021/07/23 01:54:08;;;;;;;17.98;12.60;;;17.00;99.90;;;;;;4995394;28;20065;-85
2021/07/23 01:56:36;;;;;;;17.02;13.02;;;17.00;99.90;;;;;;4995861;28;20041;-84
2021/07/23 02:01:31;;;;;;;18.05;12.95;;;16.90;99.90;;;;;;4947532;29;20060;-78
2021/07/23 02:03:58;;;;;;;17.95;12.27;;;16.90;99.90;;;;;;4957063;29;20201;-79
2021/07/23 02:06:25;;;;;;;16.52;12.57;;;16.90;99.90;;;;;;4957438;29;20130;-78
2021/07/23 02:08:51;;;;;;;21.17;12.77;;;16.90;99.90;;;;;;4956344;29;20142;-79
2021/07/23 02:11:18;;;;;;;16.33;11.75;;;16.90;99.90;;;;;;4938947;29;20310;-81
2021/07/23 02:13:46;;;;;;;18.20;13.68;;;16.80;99.90;;;;;;4940662;29;20082;-80
2021/07/23 02:16:13;;;;;;;16.95;12.05;;;16.80;99.90;;;;;;4937389;29;20054;-80
2021/07/23 02:18:40;;;;;;;23.77;13.05;;;16.80;99.90;;;;;;4940564;29;20220;-79
2021/07/23 02:21:08;;;;;;;17.33;11.60;;;16.80;99.90;;;;;;4938182;29;20056;-81
2021/07/23 02:23:37;;;;;;;15.43;11.38;;;16.80;99.90;;;;;;4937824;29;20060;-79
2021/07/23 02:26:04;;;;;;;13.98;11.38;;;16.80;99.90;;;;;;4938517;29;20047;-78
2021/07/23 02:28:31;;;;;;;14.00;11.35;;;16.80;99.90;;;;;;4936879;29;20079;-79
2021/07/23 02:30:59;;;;;;;15.93;11.32;;;16.80;99.90;;;;;;4937449;29;20136;-79
2021/07/23 02:33:26;;;;;;;16.75;11.30;;;16.80;99.90;;;;;;4937326;29;20198;-79
2021/07/23 02:35:53;;;;;;;17.10;11.63;;;16.90;99.90;;;;;;4941324;29;20051;-79
2021/07/23 02:38:20;;;;;;;16.70;12.20;;;16.80;99.90;;;;;;4939353;29;20111;-78
2021/07/23 02:40:47;;;;;;;14.85;11.65;;;16.70;99.90;;;;;;4936572;29;20083;-78
2021/07/23 02:43:13;;;;;;;15.48;11.10;;;16.70;99.90;;;;;;4936519;29;20051;-79
2021/07/23 02:45:40;;;;;;;15.20;11.48;;;16.70;99.90;;;;;;4938644;29;20056;-79
2021/07/23 02:48:09;;;;;;;13.77;11.80;;;16.60;99.90;;;;;;4937533;29;20052;-80
2021/07/23 02:50:35;;;;;;;15.65;12.00;;;16.60;99.90;;;;;;4937656;29;20055;-79
2021/07/23 02:53:03;;;;;;;17.52;11.27;;;16.50;99.90;;;;;;4936826;29;20111;-79
2021/07/23 02:55:30;;;;;;;16.30;12.77;;;16.50;99.90;;;;;;4937056;29;20130;-79
2021/07/23 02:57:56;;;;;;;18.67;12.18;;;16.50;99.90;;;;;;4937817;29;20062;-79
2021/07/23 03:00:24;;;;;;;17.70;12.25;;;16.40;99.90;;;;;;4938532;29;20115;-80
2021/07/23 03:02:50;;;;;;;14.52;11.82;;;16.40;99.90;;;;;;4938404;29;20052;-79
2021/07/23 03:05:19;;;;;;;19.50;13.65;;;16.30;99.90;;;;;;4938471;29;20058;-78
2021/07/23 03:07:46;;;;;;;16.35;11.55;;;16.30;99.90;;;;;;4937629;29;20054;-79
2021/07/23 03:10:13;;;;;;;16.92;12.02;;;16.30;99.90;;;;;;4937522;29;20134;-79
2021/07/23 03:12:39;;;;;;;17.08;11.85;;;16.20;99.90;;;;;;4937351;29;20552;-79
2021/07/23 03:15:07;;;;;;;16.88;12.43;;;16.20;99.90;;;;;;4937400;29;20130;-80
2021/07/23 03:17:34;;;;;;;17.00;12.10;;;16.20;99.90;;;;;;4936512;29;20048;-78
2021/07/23 03:20:02;;;;;;;19.95;12.68;;;16.10;99.90;;;;;;4935634;29;20055;-78
2021/07/23 03:22:30;;;;;;;20.73;12.38;;;16.10;99.90;;;;;;4935382;29;20086;-77
2021/07/23 03:24:57;;;;;;;14.65;11.48;;;16.10;99.90;;;;;;4935686;29;20058;-77
2021/07/23 03:27:24;;;;;;;18.23;12.60;;;16.10;99.90;;;;;;4937495;29;20051;-79
2021/07/23 03:29:51;;;;;;;17.15;12.00;;;16.00;99.90;;;;;;4936756;29;20136;-79
2021/07/23 03:32:18;;;;;;;16.23;11.93;;;15.90;99.90;;;;;;4937749;29;20051;-79
2021/07/23 03:34:45;;;;;;;20.65;13.35;;;15.90;99.90;;;;;;4937940;29;20150;-78
2021/07/23 03:37:12;;;;;;;15.32;12.27;;;15.90;99.90;;;;;;4938139;29;20092;-79
2021/07/23 03:39:40;;;;;;;17.45;12.55;;;15.80;99.90;;;;;;4935115;29;20588;-78
2021/07/23 03:42:07;;;;;;;16.67;12.65;;;15.80;99.90;;;;;;4935956;29;20431;-79
2021/07/23 03:44:34;;;;;;;18.45;12.43;;;15.80;99.90;;;;;;4934891;29;20107;-78
2021/07/23 03:47:00;;;;;;;18.48;12.52;;;15.80;99.90;;;;;;4934678;29;20047;-78
2021/07/23 03:49:27;;;;;;;17.45;11.70;;;15.80;99.90;;;;;;4935659;29;20055;-79
2021/07/23 03:51:56;;;;;;;18.83;12.20;;;15.70;99.90;;;;;;4936324;29;20087;-79
2021/07/23 03:54:23;;;;;;;17.80;13.55;;;15.70;99.90;;;;;;4938748;29;20528;-78
2021/07/23 03:56:51;;;;;;;19.55;12.68;;;15.70;99.90;;;;;;4936518;29;20090;-78
2021/07/23 03:59:18;;;;;;;14.75;11.00;;;15.70;99.90;;;;;;4937454;29;20543;-79
2021/07/23 04:01:45;;;;;;;16.60;11.82;;;15.70;99.90;;;;;;4937483;29;20058;-80
2021/07/23 04:04:12;;;;;;;16.70;12.27;;;15.70;99.90;;;;;;4935120;29;20530;-79
2021/07/23 04:06:39;;;;;;;15.73;12.07;;;15.70;99.90;;;;;;4935651;29;20472;-78
2021/07/23 04:09:06;;;;;;;16.08;12.30;;;15.70;99.90;;;;;;4935513;29;20139;-78
2021/07/23 04:11:37;;;;;;;14.32;11.52;;;15.70;99.90;;;;;;4934661;29;20075;-79
2021/07/23 04:14:05;;;;;;;15.20;12.82;;;15.70;99.90;;;;;;4934299;29;20059;-78
2021/07/23 04:16:32;;;;;;;20.77;12.30;;;15.80;99.90;;;;;;4934104;29;20047;-80
2021/07/23 04:18:58;;;;;;;15.68;12.07;;;15.90;99.90;;;;;;4934440;29;20083;-78
2021/07/23 04:21:25;;;;;;;16.95;11.75;;;16.00;99.90;;;;;;4934499;29;20484;-78
2021/07/23 04:23:52;;;;;;;14.73;11.57;;;16.10;99.90;;;;;;4933669;29;20534;-79
2021/07/23 04:26:19;;;;;;;14.90;11.48;;;16.30;99.90;;;;;;4934218;29;20051;-78
2021/07/23 04:28:46;;;;;;;16.52;11.35;;;16.30;99.90;;;;;;4933953;29;20573;-78
2021/07/23 04:31:14;;;;;;;17.88;12.30;;;16.30;99.90;;;;;;4933914;29;20534;-78
2021/07/23 04:33:41;;;;;;;17.48;11.25;;;16.30;99.90;;;;;;4934073;29;20139;-78
2021/07/23 04:36:08;;;;;;;18.50;12.63;;;16.30;99.90;;;;;;4934482;29;20110;-77
2021/07/23 04:38:35;;;;;;;15.07;11.45;;;16.30;99.90;;;;;;4934262;29;20052;-78
2021/07/23 04:41:02;;;;;;;14.88;11.98;;;16.50;99.90;;;;;;4934015;29;20054;-78
2021/07/23 04:43:29;;;;;;;18.65;11.27;;;16.60;99.90;;;;;;4933967;29;20051;-78
2021/07/23 04:45:55;;;;;;;16.85;11.85;;;16.70;99.90;;;;;;4934577;29;20054;-79
2021/07/23 04:48:24;;;;;;;15.77;11.55;;;16.70;99.90;;;;;;4935520;29;20135;-77
2021/07/23 04:50:51;;;;;;;15.68;11.07;;;16.90;99.90;;;;;;4934675;29;20139;-79
2021/07/23 04:53:18;;;;;;;16.45;11.45;;;17.00;99.90;;;;;;4934490;29;20487;-79
2021/07/23 04:55:49;;;;;;;16.90;11.63;;;17.00;99.90;;;;;;4935004;29;20052;-79
2021/07/23 04:58:16;;;;;;;16.05;11.55;;;17.00;99.90;;;;;;4934800;29;20457;-80
2021/07/23 05:00:45;;;;;;;15.32;11.90;;;17.10;99.90;;;;;;4936453;29;20147;-80
2021/07/23 05:03:12;;;;;;;20.17;11.52;;;17.10;99.90;;;;;;4937500;29;20060;-80
2021/07/23 05:05:41;;;;;;;16.08;10.80;;;17.10;99.90;;;;;;4937044;29;20056;-80
2021/07/23 05:08:09;;;;;;;14.27;11.07;;;17.20;99.90;;;;;;4936351;29;20051;-79
2021/07/23 05:10:36;;;;;;;17.67;11.82;;;17.30;99.90;;;;;;4934065;29;20051;-79
2021/07/23 05:13:05;;;;;;;13.85;11.40;;;17.30;99.90;;;;;;4937553;29;20420;-79
2021/07/23 05:15:32;;;;;;;15.00;11.05;;;17.40;99.90;;;;;;4938488;29;20087;-79
2021/07/23 05:17:59;;;;;;;18.40;12.50;;;17.50;99.90;;;;;;4938051;29;20058;-81
2021/07/23 05:20:27;;;;;;;15.77;11.95;;;17.60;99.90;;;;;;4935611;29;20132;-77
2021/07/23 05:22:55;;;;;;;16.13;11.63;;;17.70;99.90;;;;;;4920322;29;20485;-77
2021/07/23 05:25:22;;;;;;;12.63;10.77;;;17.80;99.90;;;;;;4918581;29;20135;-79
2021/07/23 05:27:49;;;;;;;14.13;10.75;;;18.10;99.90;;;;;;4918394;29;20519;-78
2021/07/23 05:30:16;;;;;;;12.75;10.27;;;18.50;99.90;;;;;;4918502;29;20722;-78
2021/07/23 05:32:43;;;;;;;11.85;9.75;;;19.00;99.90;;;;;;4918195;29;20138;-78
2021/07/23 05:35:10;;;;;;;11.85;10.50;;;19.90;99.90;;;;;;4918390;29;20119;-79
2021/07/23 05:37:37;;;;;;;12.65;10.20;;;20.70;99.90;;;;;;4918761;29;20058;-79
2021/07/23 05:40:06;;;;;;;12.15;9.80;;;21.30;99.90;;;;;;4918851;29;20195;-79
2021/07/23 05:42:34;;;;;;;16.00;10.13;;;21.90;99.90;;;;;;4918597;29;20104;-79
2021/07/23 05:45:00;;;;;;;11.23;9.43;;;22.30;99.90;;;;;;4918504;29;20052;-79
2021/07/23 05:47:28;;;;;;;18.02;10.10;;;22.70;99.90;;;;;;4921114;29;20074;-78
2021/07/23 05:49:55;;;;;;;13.48;9.25;;;23.00;99.90;;;;;;4936963;29;20051;-77
2021/07/23 05:52:22;;;;;;;12.45;10.18;;;23.60;99.90;;;;;;4936534;29;20620;-78
2021/07/23 05:54:49;;;;;;;12.85;10.38;;;23.80;99.90;;;;;;4938793;29;20453;-78
2021/07/23 05:57:17;;;;;;;13.57;10.15;;;23.60;99.90;;;;;;4937164;29;20126;-78
2021/07/23 05:59:45;;;;;;;11.40;10.00;;;23.70;99.90;;;;;;4936792;29;20059;-79
2021/07/23 06:02:12;;;;;;;14.57;10.07;;;23.60;99.90;;;;;;4935817;29;20051;-77
2021/07/23 06:04:39;;;;;;;15.48;9.68;;;23.40;99.90;;;;;;4937152;29;20056;-78
2021/07/23 06:07:07;;;;;;;12.38;10.32;;;23.50;99.90;;;;;;4936873;29;20083;-78
2021/07/23 06:09:34;;;;;;;12.35;10.35;;;23.50;99.90;;;;;;4937397;29;20142;-78
2021/07/23 06:12:01;;;;;;;15.35;9.80;;;24.00;99.90;;;;;;4937459;29;20091;-78
2021/07/23 06:14:29;;;;;;;11.98;10.00;;;24.20;99.90;;;;;;4937574;29;20131;-78
2021/07/23 06:16:56;;;;;;;13.95;10.10;;;24.40;99.90;;;;;;4936914;29;20139;-78
2021/07/23 06:19:23;;;;;;;12.20;9.98;;;25.00;99.90;;;;;;4936656;29;20143;-78
2021/07/23 06:21:50;;;;;;;10.98;9.85;;;25.50;99.90;;;;;;4936607;29;20052;-78
2021/07/23 06:24:17;;;;;;;11.40;9.73;;;25.60;99.90;;;;;;4935593;29;20079;-77
2021/07/23 06:26:44;;;;;;;15.30;10.23;;;25.90;99.90;;;;;;4936801;29;20138;-78
2021/07/23 06:29:11;;;;;;;11.40;9.93;;;25.60;99.90;;;;;;4936842;29;20141;-78
2021/07/23 06:31:39;;;;;;;12.75;10.07;;;25.40;99.90;;;;;;4936072;29;20497;-79
2021/07/23 06:34:06;;;;;;;13.63;10.65;;;25.20;99.90;;;;;;4935810;29;20130;-78
2021/07/23 06:36:33;;;;;;;12.50;10.95;;;25.30;99.90;;;;;;4936300;29;21923;-77
2021/07/23 06:39:00;;;;;;;13.23;11.02;;;25.80;99.90;;;;;;4935865;29;20527;-77
2021/07/23 06:41:27;;;;;;;13.82;10.65;;;25.80;99.90;;;;;;4935963;29;20134;-77
2021/07/23 06:43:54;;;;;;;14.80;10.50;;;26.10;99.90;;;;;;4930458;29;20048;-79
2021/07/23 06:46:21;;;;;;;11.90;10.68;;;26.20;99.90;;;;;;4928245;29;20453;-79
2021/07/23 06:48:49;;;;;;;13.38;11.30;;;26.10;99.90;;;;;;4927794;29;20059;-76
2021/07/23 06:51:16;;;;;;;14.93;11.23;;;26.10;99.90;;;;;;4925691;29;20155;-77
2021/07/23 06:53:43;;;;;;;13.30;11.15;;;26.60;99.90;;;;;;4934946;29;20143;-77
2021/07/23 06:56:09;;;;;;;13.07;11.02;;;26.20;99.90;;;;;;4920201;29;20094;-79
2021/07/23 06:58:36;;;;;;;11.88;10.68;;;26.10;99.90;;;;;;4930794;29;20143;-78
2021/07/23 07:01:07;;;;;;;12.63;10.70;;;26.20;99.90;;;;;;4925374;29;20543;-78
2021/07/23 07:03:34;;;;;;;14.48;11.70;;;26.40;99.90;;;;;;4925451;29;20048;-80
2021/07/23 07:06:04;;;;;;;12.18;10.75;;;26.70;99.90;;;;;;4924286;29;20099;-76
2021/07/23 07:08:31;;;;;;;13.20;11.60;;;27.10;99.90;;;;;;4925773;29;20115;-78
2021/07/23 07:10:58;;;;;;;15.48;11.55;;;27.60;99.90;;;;;;4920886;29;20461;-79
2021/07/23 07:13:25;;;;;;;14.13;10.52;;;28.10;99.90;;;;;;4921196;29;20576;-78
2021/07/23 07:15:52;;;;;;;14.48;11.60;;;28.30;99.90;;;;;;4936402;29;20468;-78
2021/07/23 07:18:19;;;;;;;12.98;10.70;;;28.50;99.90;;;;;;4931155;29;20485;-79
2021/07/23 07:20:45;;;;;;;15.07;11.27;;;28.70;99.90;;;;;;4917871;29;20127;-78
2021/07/23 07:23:14;;;;;;;14.02;10.93;;;28.80;99.90;;;;;;4917166;29;20056;-78
2021/07/23 07:25:41;;;;;;;21.70;12.80;;;28.70;99.90;;;;;;4929733;29;20107;-81
2021/07/23 07:28:08;;;;;;;13.52;11.18;;;28.20;99.90;;;;;;4939988;29;20093;-81
2021/07/23 07:30:37;;;;;;;12.13;10.60;;;28.20;99.90;;;;;;4939410;29;20540;-82
2021/07/23 07:33:06;;;;;;;13.77;10.80;;;28.20;99.90;;;;;;4939895;29;20052;-82
2021/07/23 07:35:36;;;;;;;13.20;11.23;;;28.00;99.90;;;;;;4940065;29;20051;-82
2021/07/23 07:38:06;;;;;;;12.70;11.02;;;27.60;99.90;;;;;;4940182;29;20115;-81
2021/07/23 07:40:34;;;;;;;13.23;10.98;;;27.40;99.90;;;;;;4940316;29;20086;-80
2021/07/23 07:43:15;;;;;;;17.60;10.52;;;27.60;99.90;;;;;;4938773;29;20051;-79
2021/07/23 07:45:44;;;;;;;14.20;10.95;;;27.90;99.90;;;;;;4941044;29;20051;-80
2021/07/23 07:48:12;;;;;;;13.30;10.68;;;28.00;99.90;;;;;;4939939;29;20511;-80
2021/07/23 07:50:42;;;;;;;13.50;11.73;;;28.20;99.90;;;;;;4940229;29;20063;-80
2021/07/23 07:53:11;;;;;;;14.48;12.43;;;28.50;99.90;;;;;;4939207;29;20059;-79
2021/07/23 07:55:40;;;;;;;14.90;11.52;;;27.90;99.90;;;;;;4936592;29;20076;-80
2021/07/23 07:58:07;;;;;;;15.88;11.05;;;27.20;99.90;;;;;;4935838;29;20044;-80
2021/07/23 08:00:35;;;;;;;13.10;11.75;;;27.70;99.90;;;;;;4992822;23;20122;-83
2021/07/23 08:03:01;;;;;;;13.48;11.93;;;27.10;99.90;;;;;;4974298;28;20414;-83
2021/07/23 08:05:28;;;;;;;17.33;12.13;;;27.30;99.90;;;;;;4982464;28;20138;-84
2021/07/23 08:07:58;;;;;;;13.65;12.25;;;27.80;99.90;;;;;;4981554;28;20089;-84
2021/07/23 08:10:25;;;;;;;14.27;11.88;;;27.90;99.90;;;;;;4982567;28;20062;-84
2021/07/23 08:12:54;;;;;;;14.52;12.18;;;28.10;99.90;;;;;;4982687;28;20047;-80
2021/07/23 08:15:36;;;;;;;;;;;;;;;;;;;;;
2021/07/23 08:18:03;;;;;;;15.35;12.05;;;28.70;99.90;;;;;;4981776;28;20133;-81
2021/07/23 08:20:32;;;;;;;19.60;12.50;;;27.80;99.90;;;;;;4982349;28;20047;-82
2021/07/23 08:22:59;;;;;;;13.10;11.35;;;28.20;99.90;;;;;;4981322;28;20145;-81
2021/07/23 08:25:26;;;;;;;16.00;12.15;;;28.60;99.90;;;;;;4981272;28;20125;-82
2021/07/23 08:27:54;;;;;;;15.52;11.25;;;28.80;99.90;;;;;;4982091;28;20111;-81
2021/07/23 08:30:21;;;;;;;13.30;11.27;;;29.00;99.90;;;;;;4981950;28;20050;-82
2021/07/23 08:32:48;;;;;;;16.23;11.80;;;29.30;99.90;;;;;;4982734;28;20476;-81
2021/07/23 08:35:15;;;;;;;17.23;13.13;;;29.30;99.90;;;;;;4981495;28;20051;-79
2021/07/23 08:37:43;;;;;;;16.60;13.07;;;28.80;99.90;;;;;;4983981;28;20086;-81
2021/07/23 08:40:17;;;;;;;13.45;11.23;;;28.70;99.90;;;;;;4985690;28;20054;-81
2021/07/23 08:42:46;;;;;;;13.80;11.52;;;29.10;99.90;;;;;;4985057;28;20086;-81
2021/07/23 08:45:17;;;;;;;14.95;11.55;;;29.20;99.90;;;;;;4984993;28;20081;-79
2021/07/23 08:47:44;;;;;;;17.88;12.23;;;29.10;99.90;;;;;;4988464;28;20504;-82
2021/07/23 08:50:14;;;;;;;14.25;12.05;;;29.10;99.90;;;;;;4983255;28;20050;-81
2021/07/23 08:52:50;;;;;;;15.82;11.80;;;28.60;99.90;;;;;;4982863;28;20051;-82
2021/07/23 08:55:20;;;;;;;14.32;11.77;;;28.80;99.90;;;;;;4984414;28;20418;-81
2021/07/23 08:57:48;;;;;;;14.05;12.50;;;28.40;99.90;;;;;;4983483;28;20050;-81
2021/07/23 09:00:21;;;;;;;15.50;12.43;;;28.00;99.90;;;;;;4983525;28;20050;-79
2021/07/23 09:02:53;;;;;;;14.93;11.25;;;28.00;99.90;;;;;;4984452;28;20050;-79
2021/07/23 09:05:26;;;;;;;16.35;11.85;;;28.20;99.90;;;;;;4982915;28;20050;-82
2021/07/23 09:07:55;;;;;;;14.05;11.98;;;28.10;99.90;;;;;;4980370;28;20423;-79
2021/07/23 09:10:23;;;;;;;13.27;11.73;;;27.60;99.90;;;;;;4979326;28;20415;-80
2021/07/23 09:12:55;;;;;;;13.95;12.18;;;28.10;99.90;;;;;;4979916;28;20142;-81
2021/07/23 09:15:26;;;;;;;15.43;11.73;;;28.00;99.90;;;;;;4982602;28;20097;-82
2021/07/23 09:17:54;;;;;;;14.55;12.13;;;28.30;99.90;;;;;;4983742;28;20057;-79
2021/07/23 09:20:26;;;;;;;16.75;12.65;;;28.20;99.90;;;;;;4982658;28;20051;-81
2021/07/23 09:22:55;;;;;;;16.70;13.18;;;27.60;99.90;;;;;;4982305;28;20082;-81
2021/07/23 09:25:42;;;;;;;18.13;12.70;;;27.60;99.90;;;;;;4983907;28;20600;-80
2021/07/23 09:28:23;;;;;;;16.73;12.43;;;27.50;99.90;;;;;;4982979;28;20050;-86
2021/07/23 09:30:53;;;;;;;12.52;10.77;;;27.20;99.90;;;;;;4985008;28;20157;-82
2021/07/23 09:33:32;;;;;;;13.77;10.25;;;27.30;99.90;;;;;;4980589;28;20114;-82
2021/07/23 09:36:00;;;;;;;11.63;10.32;;;27.80;99.90;;;;;;4980996;28;20074;-81
2021/07/23 09:38:34;;;;;;;11.77;10.52;;;28.00;99.90;;;;;;4981849;28;20086;-83
2021/07/23 09:41:02;;;;;;;15.80;9.57;;;28.30;99.90;;;;;;4987201;28;20055;-83
2021/07/23 09:46:30;;;;;;;12.68;11.35;;;28.20;99.90;;;;;;4980720;28;20059;-82
2021/07/23 09:48:59;;;;;;;13.13;10.00;;;28.20;99.90;;;;;;4983476;28;20057;-83
2021/07/23 09:51:26;;;;;;;14.70;12.13;;;28.60;99.90;;;;;;4983114;28;20046;-82
2021/07/23 09:53:55;;;;;;;14.43;10.68;;;28.30;99.90;;;;;;4979366;28;20046;-81
2021/07/23 09:56:24;;;;;;;14.65;10.13;;;27.90;99.90;;;;;;4977742;28;20111;-81
2021/07/23 09:59:02;;;;;;;11.15;9.80;;;28.00;99.90;;;;;;4982318;28;20122;-82
2021/07/23 10:01:39;;;;;;;13.48;10.30;;;28.00;99.90;;;;;;4985528;28;20408;-82
2021/07/23 10:04:10;;;;;;;15.25;11.38;;;27.80;99.90;;;;;;4986969;28;20074;-81
2021/07/23 10:06:45;;;;;;;16.55;11.27;;;27.40;99.90;;;;;;4980914;28;20074;-80
2021/07/23 10:09:19;;;;;;;11.75;10.55;;;26.70;99.90;;;;;;4981446;28;20054;-81
2021/07/23 10:11:46;;;;;;;15.52;11.15;;;26.60;99.90;;;;;;4981652;28;20133;-81
2021/07/23 10:14:20;;;;;;;13.07;10.13;;;26.80;99.90;;;;;;4982822;28;20051;-80
2021/07/23 10:16:49;;;;;;;14.00;10.95;;;26.80;99.90;;;;;;4983504;28;20063;-81
2021/07/23 10:19:16;;;;;;;13.52;11.85;;;26.80;99.90;;;;;;4984507;28;20396;-82
2021/07/23 10:21:43;;;;;;;16.08;12.93;;;26.60;99.90;;;;;;4982002;28;20379;-81
2021/07/23 10:24:10;;;;;;;14.63;12.95;;;26.30;99.90;;;;;;4981481;28;20154;-80
2021/07/23 10:26:38;;;;;;;14.77;11.77;;;26.10;99.90;;;;;;4985473;28;20054;-82
2021/07/23 10:29:07;;;;;;;17.13;12.98;;;26.00;99.90;;;;;;4986390;28;20067;-83
2021/07/23 10:31:56;;;;;;;16.13;12.55;;;26.10;99.90;;;;;;4985236;28;20050;-84
2021/07/23 10:34:32;;;;;;;17.30;12.82;;;26.20;99.90;;;;;;4983859;28;20078;-84
2021/07/23 10:36:59;;;;;;;17.35;13.00;;;26.30;99.90;;;;;;4985628;28;20050;-84
2021/07/23 10:39:26;;;;;;;15.82;12.55;;;26.50;99.90;;;;;;4982567;28;20046;-84
2021/07/23 10:42:30;;;;;;;18.33;12.40;;;26.60;99.90;;;;;;4983822;28;20086;-85
2021/07/23 10:44:57;;;;;;;15.05;12.40;;;26.60;99.90;;;;;;4983973;28;20526;-84
2021/07/23 10:47:41;;;;;;;17.23;11.75;;;26.40;99.90;;;;;;4984196;28;20486;-85
2021/07/23 10:50:41;;;;;;;14.27;11.85;;;26.60;99.90;;;;;;4972574;28;20057;-84
2021/07/23 10:53:33;;;;;;;16.08;14.18;;;26.70;99.90;;;;;;4980949;28;20146;-83
2021/07/23 10:56:00;;;;;;;14.70;12.05;;;26.70;99.90;;;;;;4983816;28;20157;-84
2021/07/23 10:58:40;;;;;;;15.68;12.38;;;26.70;99.90;;;;;;4979171;28;20098;-87
2021/07/23 11:01:10;;;;;;;20.23;12.80;;;26.70;99.90;;;;;;4985907;28;20110;-82
2021/07/23 11:04:04;;;;;;;16.63;12.77;;;26.90;99.90;;;;;;4989482;28;20043;-83
2021/07/23 11:06:35;;;;;;;14.73;13.07;;;26.80;99.90;;;;;;4993228;28;20093;-83
2021/07/23 11:09:07;;;;;;;21.15;13.45;;;26.70;99.90;;;;;;4994128;28;20031;-81
2021/07/23 11:11:34;;;;;;;17.13;12.90;;;26.60;99.90;;;;;;4992492;28;20237;-83
2021/07/23 11:14:18;;;;;;;17.02;13.40;;;26.40;99.90;;;;;;4985889;28;20451;-84
2021/07/23 11:16:45;;;;;;;20.33;13.77;;;26.30;99.90;;;;;;4985663;28;20078;-84
2021/07/23 11:19:26;;;;;;;19.73;13.45;;;26.10;99.90;;;;;;4990417;28;20061;-82
2021/07/23 11:21:54;;;;;;;14.75;12.48;;;26.20;99.90;;;;;;4986216;28;20050;-83
2021/07/23 11:24:20;;;;;;;16.17;12.45;;;26.20;99.90;;;;;;4982422;28;20051;-81
2021/07/23 11:26:52;;;;;;;17.17;12.93;;;26.10;99.90;;;;;;4982392;28;20043;-81
2021/07/23 11:29:32;;;;;;;18.35;14.35;;;25.90;99.90;;;;;;4980540;28;20101;-82
2021/07/23 11:32:07;;;;;;;17.90;13.50;;;25.90;99.90;;;;;;4977639;28;20050;-82
2021/07/23 11:34:41;;;;;;;16.63;12.85;;;25.70;99.90;;;;;;4977820;28;20407;-85
2021/07/23 11:37:16;;;;;;;21.83;13.15;;;25.80;99.90;;;;;;4986059;28;20061;-84
2021/07/23 11:39:59;;;;;;;15.32;11.82;;;26.00;99.90;;;;;;4991276;28;20051;-84
2021/07/23 11:42:39;;;;;;;15.13;12.00;;;26.10;99.90;;;;;;4988566;28;20073;-85
2021/07/23 11:45:13;;;;;;;20.02;11.85;;;26.50;99.90;;;;;;4988736;28;20047;-85
2021/07/23 11:47:41;;;;;;;15.50;12.70;;;26.70;99.90;;;;;;4986821;28;20050;-82
2021/07/23 11:50:14;;;;;;;17.75;12.10;;;27.00;99.90;;;;;;4977120;28;20070;-83
2021/07/23 11:52:43;;;;;;;18.30;12.48;;;27.10;99.90;;;;;;4971707;29;20082;-83
2021/07/23 11:58:03;;;;;;;14.85;11.70;;;27.20;99.90;;;;;;4960392;29;20061;-84
2021/07/23 12:00:36;;;;;;;17.05;12.60;;;27.30;99.90;;;;;;4969610;28;20066;-83
2021/07/23 12:03:22;;;;;;;19.33;13.07;;;27.30;99.90;;;;;;4969769;29;20055;-84
2021/07/23 12:06:14;;;;;;;17.20;12.02;;;26.90;99.90;;;;;;4969651;29;20059;-84
2021/07/23 12:08:52;;;;;;;14.00;11.25;;;26.80;99.90;;;;;;4970295;29;20035;-82
2021/07/23 12:11:38;;;;;;;16.13;11.90;;;26.70;99.90;;;;;;4969885;29;20092;-84
2021/07/23 12:14:26;;;;;;;15.50;12.45;;;26.70;99.90;;;;;;4970642;29;20082;-83
2021/07/23 12:17:37;;;;;;;17.60;12.95;;;26.70;99.90;;;;;;4971445;29;20075;-85
2021/07/23 12:20:44;;;;;;;;;;;;;;;;;;;;;
2021/07/23 12:26:38;;;;;;;13.63;11.40;;;27.50;99.90;;;;;;4965035;29;20063;-83
2021/07/23 12:39:05;;;;;;;16.92;12.23;;;27.30;99.90;;;;;;4961723;29;20074;-84
2021/07/23 12:41:33;;;;;;;16.27;12.50;;;27.30;99.90;;;;;;4970212;29;20055;-85
2021/07/23 12:44:05;;;;;;;15.13;11.73;;;27.40;99.90;;;;;;4980730;28;20154;-84
2021/07/23 12:46:32;;;;;;;16.63;11.70;;;27.40;99.90;;;;;;4989793;28;20101;-84
2021/07/23 12:49:12;;;;;;;14.95;11.65;;;27.50;99.90;;;;;;4989484;28;20130;-84
2021/07/23 12:51:40;;;;;;;13.05;10.45;;;27.40;99.90;;;;;;4990149;28;20073;-83
2021/07/23 12:54:09;;;;;;;15.20;10.13;;;27.30;99.90;;;;;;4989637;28;20055;-84
2021/07/23 12:56:37;;;;;;;13.23;11.43;;;27.30;99.90;;;;;;4990209;28;20083;-84
2021/07/23 12:59:23;;;;;;;13.15;10.63;;;27.20;99.90;;;;;;4989964;28;20081;-82
2021/07/23 13:01:50;;;;;;;17.42;12.60;;;26.90;99.90;;;;;;4950512;28;1119620;-82
2021/07/23 13:04:17;;;;;;;15.02;10.77;;;26.80;99.90;;;;;;4989255;28;20062;-85
2021/07/23 13:06:45;;;;;;;12.63;10.15;;;26.70;99.90;;;;;;4990116;28;20057;-83
2021/07/23 13:09:13;;;;;;;10.80;9.57;;;26.70;99.90;;;;;;4989647;28;20070;-84
2021/07/23 13:11:40;;;;;;;13.77;11.27;;;26.80;99.90;;;;;;4990568;28;20075;-84
2021/07/23 13:14:07;;;;;;;15.85;9.63;;;26.80;99.90;;;;;;4988707;28;20137;-84
2021/07/23 13:16:34;;;;;;;12.70;10.13;;;26.90;99.90;;;;;;4990033;28;20050;-84
2021/07/23 13:19:01;;;;;;;15.45;10.80;;;26.90;99.90;;;;;;4988481;28;20184;-83
2021/07/23 13:21:28;;;;;;;14.23;10.80;;;26.90;99.90;;;;;;4989421;28;20085;-84
2021/07/23 13:23:55;;;;;;;13.93;10.52;;;27.00;99.90;;;;;;4989486;28;20519;-85
2021/07/23 13:26:23;;;;;;;10.65;9.05;;;27.10;99.90;;;;;;4989523;28;20051;-82
2021/07/23 13:28:50;;;;;;;11.43;10.20;;;27.30;99.90;;;;;;4988672;28;20082;-84
2021/07/23 13:31:17;;;;;;;14.77;10.27;;;27.40;99.90;;;;;;4989021;28;20082;-84
2021/07/23 13:33:43;;;;;;;14.40;9.55;;;27.60;99.90;;;;;;4992040;28;20066;-84
2021/07/23 13:36:17;;;;;;;11.68;9.63;;;27.70;99.90;;;;;;4993407;28;20077;-82
2021/07/23 13:38:52;;;;;;;13.63;10.75;;;27.60;99.90;;;;;;4992453;28;20101;-81
2021/07/23 13:41:23;;;;;;;16.50;10.55;;;27.70;99.90;;;;;;4991564;28;20074;-83
2021/07/23 13:43:51;;;;;;;15.25;11.25;;;27.60;99.90;;;;;;4991209;28;20051;-81
2021/07/23 13:46:18;;;;;;;13.68;10.55;;;27.30;99.90;;;;;;4992588;28;20050;-81
2021/07/23 13:48:47;;;;;;;14.00;9.43;;;27.40;99.90;;;;;;4992598;28;20096;-81
2021/07/23 13:51:15;;;;;;;11.68;9.95;;;27.50;99.90;;;;;;4992808;28;20070;-82
2021/07/23 13:53:42;;;;;;;14.98;10.80;;;27.70;99.90;;;;;;4992319;28;20065;-80